createdAt,value
2017-03-18T00:00:45.253Z,19.67
2017-03-18T00:01:55.543Z,19.7
2017-03-18T00:03:05.836Z,19.7
2017-03-18T00:04:16.145Z,19.78
2017-03-18T00:05:26.446Z,19.7
2017-03-18T00:06:36.426Z,19.62
2017-03-18T00:07:46.744Z,19.71
2017-03-18T00:08:57.054Z,19.62
2017-03-18T00:10:07.380Z,19.56
2017-03-18T00:11:17.621Z,19.55
2017-03-18T00:12:27.927Z,19.59
2017-03-18T00:13:38.240Z,19.6
2017-03-18T00:14:48.574Z,19.56
2017-03-18T00:15:58.574Z,19.6
2017-03-18T00:17:09.130Z,19.6
2017-03-18T00:18:19.444Z,19.63
2017-03-18T00:19:29.431Z,19.55
2017-03-18T00:20:39.418Z,19.56
2017-03-18T00:21:49.406Z,19.6
2017-03-18T00:23:00.014Z,19.59
2017-03-18T00:24:10.314Z,19.62
2017-03-18T00:25:20.310Z,19.64
2017-03-18T00:26:30.606Z,19.6
2017-03-18T00:27:40.925Z,19.57
2017-03-18T00:28:51.510Z,19.62
2017-03-18T00:30:01.492Z,19.59
2017-03-18T00:31:11.779Z,19.59
2017-03-18T00:32:22.084Z,19.63
2017-03-18T00:33:32.396Z,19.63
2017-03-18T00:34:42.643Z,19.59
2017-03-18T00:35:52.948Z,19.56
2017-03-18T00:37:02.938Z,19.64
2017-03-18T00:38:13.251Z,19.63
2017-03-18T00:39:23.569Z,19.55
2017-03-18T00:40:33.857Z,19.53
2017-03-18T00:41:43.527Z,19.59
2017-03-18T00:42:53.834Z,19.66
2017-03-18T00:44:04.141Z,19.57
2017-03-18T00:45:14.441Z,19.57
2017-03-18T00:46:24.986Z,19.66
2017-03-18T00:47:35.300Z,19.56
2017-03-18T00:48:45.607Z,19.56
2017-03-18T00:49:55.652Z,19.55
2017-03-18T00:51:06.109Z,19.57
2017-03-18T00:52:16.657Z,19.6
2017-03-18T00:53:26.961Z,19.57
2017-03-18T00:54:37.278Z,19.57
2017-03-18T00:55:47.568Z,19.49
2017-03-18T00:56:57.556Z,19.62
2017-03-18T00:58:08.148Z,19.63
2017-03-18T00:59:18.151Z,19.62
2017-03-18T01:00:28.455Z,19.56
2017-03-18T01:01:38.778Z,19.6
2017-03-18T01:02:49.094Z,19.55
2017-03-18T01:03:59.658Z,19.56
2017-03-18T01:05:09.949Z,19.57
2017-03-18T01:06:20.265Z,19.55
2017-03-18T01:07:30.576Z,19.6
2017-03-18T01:08:40.919Z,19.55
2017-03-18T01:09:51.473Z,19.6
2017-03-18T01:11:01.779Z,19.63
2017-03-18T01:12:12.082Z,19.53
2017-03-18T01:13:22.384Z,19.62
2017-03-18T01:14:32.688Z,19.57
2017-03-18T01:15:42.931Z,19.56
2017-03-18T01:16:53.223Z,19.53
2017-03-18T01:18:03.209Z,19.56
2017-03-18T01:19:13.214Z,19.53
2017-03-18T01:20:23.530Z,19.56
2017-03-18T01:21:34.076Z,19.59
2017-03-18T01:22:44.381Z,19.53
2017-03-18T01:23:54.692Z,19.57
2017-03-18T01:25:04.999Z,19.53
2017-03-18T01:26:15.297Z,19.63
2017-03-18T01:27:25.862Z,19.49
2017-03-18T01:28:35.847Z,19.55
2017-03-18T01:29:46.148Z,19.53
2017-03-18T01:30:56.451Z,19.57
2017-03-18T01:32:06.439Z,19.57
2017-03-18T01:33:16.977Z,19.59
2017-03-18T01:34:26.657Z,19.6
2017-03-18T01:35:36.960Z,19.56
2017-03-18T01:36:46.957Z,19.62
2017-03-18T01:37:56.640Z,19.57
2017-03-18T01:39:07.190Z,19.52
2017-03-18T01:40:17.184Z,19.59
2017-03-18T01:41:27.475Z,19.49
2017-03-18T01:42:37.786Z,19.55
2017-03-18T01:43:48.093Z,19.57
2017-03-18T01:44:58.700Z,19.57
2017-03-18T01:46:08.988Z,19.56
2017-03-18T01:47:18.964Z,19.53
2017-03-18T01:48:29.267Z,19.49
2017-03-18T01:49:39.243Z,19.44
2017-03-18T01:50:49.489Z,19.53
2017-03-18T01:51:59.800Z,19.59
2017-03-18T01:53:10.103Z,19.56
2017-03-18T01:54:20.106Z,19.57
2017-03-18T01:55:30.404Z,19.55
2017-03-18T01:56:40.964Z,19.49
2017-03-18T01:57:51.264Z,19.59
2017-03-18T01:59:01.577Z,19.52
2017-03-18T02:00:11.878Z,19.52
2017-03-18T02:01:22.172Z,19.57
2017-03-18T02:02:32.781Z,19.56
2017-03-18T02:03:43.086Z,19.57
2017-03-18T02:04:53.545Z,19.55
2017-03-18T02:06:03.853Z,19.57
2017-03-18T02:07:14.167Z,19.57
2017-03-18T02:08:24.714Z,19.56
2017-03-18T02:09:35.026Z,19.59
2017-03-18T02:10:45.315Z,19.48
2017-03-18T02:11:55.327Z,19.45
2017-03-18T02:13:05.626Z,19.48
2017-03-18T02:14:16.203Z,19.45
2017-03-18T02:15:26.521Z,19.45
2017-03-18T02:16:36.813Z,19.44
2017-03-18T02:17:47.132Z,19.39
2017-03-18T02:18:57.445Z,19.44
2017-03-18T02:20:07.990Z,19.44
2017-03-18T02:21:18.281Z,19.47
2017-03-18T02:22:28.588Z,19.48
2017-03-18T02:23:38.897Z,19.42
2017-03-18T02:24:48.891Z,19.53
2017-03-18T02:25:59.187Z,19.52
2017-03-18T02:27:09.493Z,19.47
2017-03-18T02:28:19.789Z,19.44
2017-03-18T02:29:29.788Z,19.48
2017-03-18T02:30:40.092Z,19.42
2017-03-18T02:31:50.333Z,19.44
2017-03-18T02:33:00.787Z,19.44
2017-03-18T02:34:10.782Z,19.48
2017-03-18T02:35:21.541Z,19.47
2017-03-18T02:36:31.839Z,19.52
2017-03-18T02:37:42.125Z,19.47
2017-03-18T02:38:52.109Z,19.47
2017-03-18T02:40:02.412Z,19.44
2017-03-18T02:41:12.719Z,19.52
2017-03-18T02:42:23.020Z,19.42
2017-03-18T02:43:33.264Z,19.45
2017-03-18T02:44:43.571Z,19.49
2017-03-18T02:45:53.245Z,19.52
2017-03-18T02:47:03.228Z,19.38
2017-03-18T02:48:13.548Z,19.45
2017-03-18T02:49:24.146Z,19.45
2017-03-18T02:50:34.451Z,19.52
2017-03-18T02:51:44.749Z,19.44
2017-03-18T02:52:54.726Z,19.48
2017-03-18T02:54:05.036Z,19.47
2017-03-18T02:55:15.628Z,19.45
2017-03-18T02:56:25.615Z,19.53
2017-03-18T02:57:35.908Z,19.48
2017-03-18T02:58:45.900Z,19.47
2017-03-18T02:59:55.888Z,19.37
2017-03-18T03:01:06.439Z,19.47
2017-03-18T03:02:16.736Z,19.42
2017-03-18T03:03:27.066Z,19.44
2017-03-18T03:04:37.363Z,19.44
2017-03-18T03:05:47.037Z,19.42
2017-03-18T03:06:57.269Z,19.48
2017-03-18T03:08:07.577Z,19.35
2017-03-18T03:09:17.877Z,19.38
2017-03-18T03:10:28.169Z,19.35
2017-03-18T03:11:38.496Z,19.44
2017-03-18T03:12:48.416Z,19.37
2017-03-18T03:13:58.736Z,19.42
2017-03-18T03:15:08.714Z,19.39
2017-03-18T03:16:19.014Z,19.52
2017-03-18T03:17:29.120Z,19.39
2017-03-18T03:18:39.358Z,19.35
2017-03-18T03:19:49.683Z,19.42
2017-03-18T03:20:59.983Z,19.34
2017-03-18T03:22:10.279Z,19.34
2017-03-18T03:23:20.266Z,19.44
2017-03-18T03:24:30.518Z,19.44
2017-03-18T03:25:40.818Z,19.37
2017-03-18T03:26:51.118Z,19.41
2017-03-18T03:28:01.443Z,19.35
2017-03-18T03:29:11.737Z,19.37
2017-03-18T03:30:22.300Z,19.39
2017-03-18T03:31:32.602Z,19.39
2017-03-18T03:32:42.905Z,19.38
2017-03-18T03:33:53.207Z,19.35
2017-03-18T03:35:03.514Z,19.29
2017-03-18T03:36:13.789Z,19.35
2017-03-18T03:37:23.770Z,19.42
2017-03-18T03:38:34.073Z,19.35
2017-03-18T03:39:44.055Z,19.41
2017-03-18T03:40:54.034Z,19.38
2017-03-18T03:42:04.627Z,19.37
2017-03-18T03:43:14.920Z,19.41
2017-03-18T03:44:25.220Z,19.3
2017-03-18T03:45:35.520Z,19.3
2017-03-18T03:46:45.820Z,19.27
2017-03-18T03:47:56.372Z,19.34
2017-03-18T03:49:06.362Z,19.35
2017-03-18T03:50:16.346Z,19.27
2017-03-18T03:51:26.639Z,19.42
2017-03-18T03:52:36.934Z,19.34
2017-03-18T03:53:47.488Z,19.39
2017-03-18T03:54:57.798Z,19.3
2017-03-18T03:56:08.090Z,19.26
2017-03-18T03:57:18.397Z,19.41
2017-03-18T03:58:28.378Z,19.39
2017-03-18T03:59:38.966Z,19.3
2017-03-18T04:00:48.637Z,19.32
2017-03-18T04:01:58.947Z,19.24
2017-03-18T04:03:09.241Z,19.29
2017-03-18T04:04:19.235Z,19.32
2017-03-18T04:05:29.833Z,19.23
2017-03-18T04:06:39.500Z,19.34
2017-03-18T04:07:49.806Z,19.27
2017-03-18T04:08:59.805Z,19.3
2017-03-18T04:10:10.102Z,19.27
2017-03-18T04:11:20.383Z,19.37
2017-03-18T04:12:30.365Z,19.24
2017-03-18T04:13:40.345Z,19.29
2017-03-18T04:14:50.657Z,19.24
2017-03-18T04:16:00.643Z,19.26
2017-03-18T04:17:11.191Z,19.32
2017-03-18T04:18:21.491Z,19.24
2017-03-18T04:19:31.811Z,19.26
2017-03-18T04:20:42.120Z,19.34
2017-03-18T04:21:52.409Z,19.34
2017-03-18T04:23:02.659Z,19.24
2017-03-18T04:24:12.963Z,19.27
2017-03-18T04:25:22.948Z,19.23
2017-03-18T04:26:33.251Z,19.27
2017-03-18T04:27:43.545Z,19.26
2017-03-18T04:28:54.151Z,19.3
2017-03-18T04:30:04.441Z,19.17
2017-03-18T04:31:14.749Z,19.24
2017-03-18T04:32:25.040Z,19.22
2017-03-18T04:33:35.345Z,19.26
2017-03-18T04:34:45.949Z,19.26
2017-03-18T04:35:56.255Z,19.22
2017-03-18T04:37:06.240Z,19.22
2017-03-18T04:38:16.568Z,19.24
2017-03-18T04:39:26.864Z,19.3
2017-03-18T04:40:37.097Z,19.23
2017-03-18T04:41:47.399Z,19.22
2017-03-18T04:42:57.386Z,19.19
2017-03-18T04:44:07.686Z,19.26
2017-03-18T04:45:17.670Z,19.22
2017-03-18T04:46:28.259Z,19.26
2017-03-18T04:47:38.244Z,19.19
2017-03-18T04:48:48.554Z,19.19
2017-03-18T04:49:58.560Z,19.16
2017-03-18T04:51:08.854Z,19.24
2017-03-18T04:52:19.405Z,19.24
2017-03-18T04:53:29.709Z,19.22
2017-03-18T04:54:40.003Z,19.23
2017-03-18T04:55:50.307Z,19.23
2017-03-18T04:57:00.593Z,19.22
2017-03-18T04:58:11.138Z,19.2
2017-03-18T04:59:21.444Z,19.2
2017-03-18T05:00:31.753Z,19.23
2017-03-18T05:01:42.041Z,19.24
2017-03-18T05:02:52.343Z,19.19
2017-03-18T05:04:02.895Z,19.17
2017-03-18T05:05:13.194Z,19.17
2017-03-18T05:06:23.498Z,19.24
2017-03-18T05:07:33.789Z,19.2
2017-03-18T05:08:44.099Z,19.22
2017-03-18T05:09:54.707Z,19.23
2017-03-18T05:11:04.992Z,19.24
2017-03-18T05:12:15.284Z,19.23
2017-03-18T05:13:25.603Z,19.24
2017-03-18T05:14:35.899Z,19.27
2017-03-18T05:15:46.490Z,19.2
2017-03-18T05:16:56.480Z,19.24
2017-03-18T05:18:06.802Z,19.23
2017-03-18T05:19:16.800Z,19.26
2017-03-18T05:20:26.786Z,19.3
2017-03-18T05:21:37.370Z,19.26
2017-03-18T05:22:47.348Z,19.24
2017-03-18T05:23:57.664Z,19.27
2017-03-18T05:25:07.981Z,19.32
2017-03-18T05:26:17.961Z,19.24
2017-03-18T05:27:28.516Z,19.23
2017-03-18T05:28:38.828Z,19.29
2017-03-18T05:29:49.123Z,19.22
2017-03-18T05:30:59.427Z,19.29
2017-03-18T05:32:09.718Z,19.24
2017-03-18T05:33:20.313Z,19.2
2017-03-18T05:34:30.605Z,19.26
2017-03-18T05:35:40.279Z,19.26
2017-03-18T05:36:50.592Z,19.19
2017-03-18T05:38:00.897Z,19.2
2017-03-18T05:39:11.193Z,19.3
2017-03-18T05:40:21.174Z,19.19
2017-03-18T05:41:31.495Z,19.24
2017-03-18T05:42:41.793Z,19.23
2017-03-18T05:43:52.084Z,19.23
2017-03-18T05:45:02.012Z,19.2
2017-03-18T05:46:12.313Z,19.22
2017-03-18T05:47:22.284Z,19.29
2017-03-18T05:48:32.589Z,19.22
2017-03-18T05:49:42.586Z,19.19
2017-03-18T05:50:53.127Z,19.3
2017-03-18T05:52:03.405Z,19.3
2017-03-18T05:53:13.395Z,19.29
2017-03-18T05:54:23.700Z,19.29
2017-03-18T05:55:34.004Z,19.26
2017-03-18T05:56:44.599Z,19.24
2017-03-18T05:57:54.901Z,19.23
2017-03-18T05:59:05.210Z,19.23
2017-03-18T06:00:15.526Z,19.26
2017-03-18T06:01:25.821Z,19.17
2017-03-18T06:02:36.075Z,19.3
2017-03-18T06:03:46.381Z,19.3
2017-03-18T06:04:56.699Z,19.27
2017-03-18T06:06:07.002Z,19.3
2017-03-18T06:07:16.982Z,19.24
2017-03-18T06:08:26.970Z,19.27
2017-03-18T06:09:37.003Z,19.26
2017-03-18T06:10:46.682Z,19.29
2017-03-18T06:11:56.349Z,19.29
2017-03-18T06:13:06.576Z,19.37
2017-03-18T06:14:17.117Z,19.26
2017-03-18T06:15:27.441Z,19.27
2017-03-18T06:16:37.728Z,19.35
2017-03-18T06:17:47.722Z,19.29
2017-03-18T06:18:58.017Z,19.24
2017-03-18T06:20:08.580Z,19.34
2017-03-18T06:21:18.579Z,19.32
2017-03-18T06:22:28.920Z,19.2
2017-03-18T06:23:39.223Z,19.26
2017-03-18T06:24:49.523Z,19.2
2017-03-18T06:26:00.063Z,19.27
2017-03-18T06:27:10.055Z,19.23
2017-03-18T06:28:20.362Z,19.22
2017-03-18T06:29:30.678Z,19.2
2017-03-18T06:30:40.678Z,19.29
2017-03-18T06:31:50.909Z,19.34
2017-03-18T06:33:01.204Z,19.29
2017-03-18T06:34:11.505Z,19.29
2017-03-18T06:35:21.526Z,19.26
2017-03-18T06:36:31.830Z,19.27
2017-03-18T06:37:42.387Z,19.23
2017-03-18T06:38:52.371Z,19.27
2017-03-18T06:40:02.665Z,19.24
2017-03-18T06:41:12.688Z,19.26
2017-03-18T06:42:22.989Z,19.32
2017-03-18T06:43:33.539Z,19.26
2017-03-18T06:44:43.530Z,19.22
2017-03-18T06:45:53.875Z,19.26
2017-03-18T06:47:04.173Z,19.23
2017-03-18T06:48:14.496Z,19.37
2017-03-18T06:49:25.099Z,19.29
2017-03-18T06:50:35.403Z,19.29
2017-03-18T06:51:45.713Z,19.32
2017-03-18T06:52:55.699Z,19.27
2017-03-18T06:54:06.000Z,19.23
2017-03-18T06:55:16.550Z,19.29
2017-03-18T06:56:26.851Z,19.23
2017-03-18T06:57:37.184Z,19.24
2017-03-18T06:58:47.502Z,19.29
2017-03-18T06:59:57.825Z,19.29
2017-03-18T07:01:08.438Z,19.29
2017-03-18T07:02:18.739Z,19.26
2017-03-18T07:03:29.043Z,19.29
2017-03-18T07:04:39.332Z,19.2
2017-03-18T07:05:49.667Z,19.2
2017-03-18T07:07:00.271Z,19.29
2017-03-18T07:08:10.576Z,19.35
2017-03-18T07:09:20.878Z,19.27
2017-03-18T07:10:30.856Z,19.26
2017-03-18T07:11:41.159Z,19.23
2017-03-18T07:12:51.459Z,19.29
2017-03-18T07:14:01.762Z,19.27
2017-03-18T07:15:12.076Z,19.3
2017-03-18T07:16:22.381Z,19.29
2017-03-18T07:17:32.688Z,19.27
2017-03-18T07:18:42.951Z,19.29
2017-03-18T07:19:53.248Z,19.3
2017-03-18T07:21:03.561Z,19.27
2017-03-18T07:22:13.869Z,19.29
2017-03-18T07:23:23.543Z,19.26
2017-03-18T07:24:34.111Z,19.27
2017-03-18T07:25:44.099Z,19.23
2017-03-18T07:26:54.404Z,19.27
2017-03-18T07:28:04.707Z,19.24
2017-03-18T07:29:15.024Z,19.3
2017-03-18T07:30:25.626Z,19.29
2017-03-18T07:31:35.958Z,19.32
2017-03-18T07:32:46.262Z,19.34
2017-03-18T07:33:56.564Z,19.29
2017-03-18T07:35:06.883Z,19.29
2017-03-18T07:36:17.670Z,19.29
2017-03-18T07:37:27.974Z,19.34
2017-03-18T07:38:38.266Z,19.26
2017-03-18T07:39:48.254Z,19.34
2017-03-18T07:40:58.564Z,19.29
2017-03-18T07:42:08.793Z,19.27
2017-03-18T07:43:19.110Z,19.29
2017-03-18T07:44:29.430Z,19.26
2017-03-18T07:45:39.723Z,19.26
2017-03-18T07:46:49.703Z,19.29
2017-03-18T07:47:59.940Z,19.3
2017-03-18T07:49:10.276Z,19.27
2017-03-18T07:50:20.622Z,19.32
2017-03-18T07:51:30.628Z,19.3
2017-03-18T07:52:40.676Z,19.2
2017-03-18T07:53:50.971Z,19.26
2017-03-18T07:55:00.980Z,19.29
2017-03-18T07:56:11.283Z,19.3
2017-03-18T07:57:21.613Z,19.34
2017-03-18T07:58:31.929Z,19.3
2017-03-18T07:59:42.167Z,19.29
2017-03-18T08:00:52.468Z,19.26
2017-03-18T08:02:02.797Z,19.3
2017-03-18T08:03:13.117Z,19.38
2017-03-18T08:04:23.436Z,19.27
2017-03-18T08:05:33.989Z,19.35
2017-03-18T08:06:44.292Z,19.34
2017-03-18T08:07:54.602Z,19.38
2017-03-18T08:09:04.915Z,19.35
2017-03-18T08:10:15.019Z,19.34
2017-03-18T08:11:25.618Z,19.32
2017-03-18T08:12:35.917Z,19.42
2017-03-18T08:13:46.228Z,19.32
2017-03-18T08:14:56.528Z,19.34
2017-03-18T08:16:06.822Z,19.32
2017-03-18T08:17:17.370Z,19.37
2017-03-18T08:18:27.662Z,19.38
2017-03-18T08:19:37.964Z,19.35
2017-03-18T08:20:48.304Z,19.38
2017-03-18T08:21:58.640Z,19.37
2017-03-18T08:23:09.495Z,19.37
2017-03-18T08:24:19.802Z,19.39
2017-03-18T08:25:30.096Z,19.41
2017-03-18T08:26:40.087Z,19.38
2017-03-18T08:27:50.397Z,19.38
2017-03-18T08:29:00.703Z,19.34
2017-03-18T08:30:11.011Z,19.37
2017-03-18T08:31:21.319Z,19.48
2017-03-18T08:32:31.619Z,19.47
2017-03-18T08:33:41.927Z,19.42
2017-03-18T08:34:52.496Z,19.35
2017-03-18T08:36:02.816Z,19.37
2017-03-18T08:37:13.123Z,19.35
2017-03-18T08:38:23.731Z,19.37
2017-03-18T08:39:34.063Z,19.41
2017-03-18T08:40:44.672Z,19.39
2017-03-18T08:41:55.036Z,19.35
2017-03-18T08:43:05.340Z,19.37
2017-03-18T08:44:15.338Z,19.48
2017-03-18T08:45:25.645Z,19.41
2017-03-18T08:46:35.308Z,19.48
2017-03-18T08:47:45.622Z,19.44
2017-03-18T08:48:55.930Z,19.48
2017-03-18T08:50:06.230Z,19.48
2017-03-18T08:51:16.540Z,19.47
2017-03-18T08:52:27.133Z,19.52
2017-03-18T08:53:37.434Z,19.48
2017-03-18T08:54:47.734Z,19.42
2017-03-18T08:55:58.042Z,19.42
2017-03-18T08:57:08.336Z,19.42
2017-03-18T08:58:18.892Z,19.47
2017-03-18T08:59:29.205Z,19.38
2017-03-18T09:00:39.505Z,19.52
2017-03-18T09:01:49.817Z,19.39
2017-03-18T09:03:00.122Z,19.48
2017-03-18T09:04:10.723Z,19.44
2017-03-18T09:05:21.046Z,19.47
2017-03-18T09:06:31.356Z,19.41
2017-03-18T09:07:41.661Z,19.52
2017-03-18T09:08:51.997Z,19.38
2017-03-18T09:10:02.617Z,19.44
2017-03-18T09:11:12.931Z,19.47
2017-03-18T09:12:22.930Z,19.56
2017-03-18T09:13:33.239Z,19.39
2017-03-18T09:14:43.537Z,19.44
2017-03-18T09:15:54.137Z,19.39
2017-03-18T09:17:04.441Z,19.41
2017-03-18T09:18:14.747Z,19.44
2017-03-18T09:19:25.066Z,19.41
2017-03-18T09:20:35.389Z,19.38
2017-03-18T09:21:45.952Z,19.39
2017-03-18T09:22:56.274Z,19.49
2017-03-18T09:24:06.586Z,19.52
2017-03-18T09:25:16.899Z,19.52
2017-03-18T09:26:27.207Z,19.44
2017-03-18T09:27:37.763Z,19.44
2017-03-18T09:28:48.071Z,19.52
2017-03-18T09:29:58.397Z,19.45
2017-03-18T09:31:08.400Z,19.38
2017-03-18T09:32:18.699Z,19.48
2017-03-18T09:33:28.941Z,19.52
2017-03-18T09:34:38.620Z,19.42
2017-03-18T09:35:48.930Z,19.55
2017-03-18T09:36:59.243Z,19.44
2017-03-18T09:38:09.571Z,19.41
2017-03-18T09:39:20.141Z,19.45
2017-03-18T09:40:30.458Z,19.42
2017-03-18T09:41:40.763Z,19.42
2017-03-18T09:42:50.752Z,19.45
2017-03-18T09:44:00.762Z,19.47
2017-03-18T09:45:11.077Z,19.41
2017-03-18T09:46:21.392Z,19.42
2017-03-18T09:47:31.709Z,19.44
2017-03-18T09:48:42.019Z,19.52
2017-03-18T09:49:52.317Z,19.57
2017-03-18T09:51:02.889Z,19.56
2017-03-18T09:52:13.207Z,19.44
2017-03-18T09:53:23.217Z,19.49
2017-03-18T09:54:33.533Z,19.53
2017-03-18T09:55:43.530Z,19.56
2017-03-18T09:56:54.096Z,19.55
2017-03-18T09:58:04.421Z,19.59
2017-03-18T09:59:14.740Z,19.56
2017-03-18T10:00:25.063Z,19.49
2017-03-18T10:01:35.404Z,19.56
2017-03-18T10:02:46.029Z,19.57
2017-03-18T10:03:56.352Z,19.62
2017-03-18T10:05:06.377Z,19.53
2017-03-18T10:06:16.685Z,19.57
2017-03-18T10:07:26.996Z,19.59
2017-03-18T10:08:37.580Z,19.52
2017-03-18T10:09:47.899Z,19.55
2017-03-18T10:10:58.201Z,19.53
2017-03-18T10:12:08.544Z,19.53
2017-03-18T10:13:18.554Z,19.6
2017-03-18T10:14:29.117Z,19.53
2017-03-18T10:15:39.430Z,19.53
2017-03-18T10:16:49.424Z,19.56
2017-03-18T10:17:59.405Z,19.56
2017-03-18T10:19:09.778Z,19.55
2017-03-18T10:20:20.383Z,19.55
2017-03-18T10:21:30.678Z,19.59
2017-03-18T10:22:40.995Z,19.6
2017-03-18T10:23:51.309Z,19.62
2017-03-18T10:25:01.636Z,19.6
2017-03-18T10:26:12.195Z,19.59
2017-03-18T10:27:22.494Z,19.49
2017-03-18T10:28:32.824Z,19.59
2017-03-18T10:29:43.148Z,19.53
2017-03-18T10:30:53.499Z,19.62
2017-03-18T10:32:04.067Z,19.57
2017-03-18T10:33:13.769Z,19.6
2017-03-18T10:34:23.132Z,19.56
2017-03-18T10:35:33.139Z,19.63
2017-03-18T10:36:43.446Z,19.59
2017-03-18T10:37:54.028Z,19.78
2017-03-18T10:39:04.345Z,19.77
2017-03-18T10:40:14.665Z,19.7
2017-03-18T10:41:24.970Z,19.67
2017-03-18T10:42:35.287Z,19.77
2017-03-18T10:43:45.852Z,19.7
2017-03-18T10:44:55.846Z,19.63
2017-03-18T10:46:06.133Z,19.78
2017-03-18T10:47:16.454Z,19.7
2017-03-18T10:48:26.752Z,19.71
2017-03-18T10:49:37.000Z,19.72
2017-03-18T10:50:47.318Z,19.71
2017-03-18T10:51:57.313Z,19.78
2017-03-18T10:53:07.641Z,19.7
2017-03-18T10:54:17.337Z,19.71
2017-03-18T10:55:27.958Z,19.81
2017-03-18T10:56:38.276Z,19.81
2017-03-18T10:57:48.592Z,19.79
2017-03-18T10:58:58.906Z,19.77
2017-03-18T11:00:08.915Z,19.72
2017-03-18T11:01:19.472Z,19.81
2017-03-18T11:02:29.786Z,19.71
2017-03-18T11:03:39.773Z,19.85
2017-03-18T11:04:50.089Z,19.78
2017-03-18T11:06:00.399Z,19.72
2017-03-18T11:07:11.001Z,19.79
2017-03-18T11:08:21.347Z,19.85
2017-03-18T11:09:31.654Z,19.79
2017-03-18T11:10:41.321Z,19.77
2017-03-18T11:11:51.302Z,19.81
2017-03-18T11:13:01.859Z,19.81
2017-03-18T11:14:12.185Z,19.92
2017-03-18T11:15:22.500Z,19.82
2017-03-18T11:16:32.832Z,19.82
2017-03-18T11:17:42.828Z,19.82
2017-03-18T11:18:53.084Z,19.79
2017-03-18T11:20:03.438Z,19.85
2017-03-18T11:21:13.743Z,19.82
2017-03-18T11:22:24.063Z,19.84
2017-03-18T11:23:34.409Z,19.84
2017-03-18T11:24:44.972Z,19.75
2017-03-18T11:25:55.283Z,19.78
2017-03-18T11:27:05.589Z,19.78
2017-03-18T11:28:15.931Z,19.81
2017-03-18T11:29:26.259Z,19.78
2017-03-18T11:30:36.835Z,19.82
2017-03-18T11:31:47.165Z,19.77
2017-03-18T11:32:57.459Z,19.85
2017-03-18T11:34:07.779Z,19.89
2017-03-18T11:35:18.085Z,19.87
2017-03-18T11:36:28.647Z,19.85
2017-03-18T11:37:38.959Z,19.93
2017-03-18T11:38:49.319Z,19.92
2017-03-18T11:39:59.641Z,19.99
2017-03-18T11:41:09.958Z,19.89
2017-03-18T11:42:20.529Z,19.87
2017-03-18T11:43:30.835Z,19.85
2017-03-18T11:44:41.136Z,19.82
2017-03-18T11:45:51.439Z,19.84
2017-03-18T11:47:01.756Z,19.82
2017-03-18T11:48:12.013Z,19.81
2017-03-18T11:49:22.013Z,19.81
2017-03-18T11:50:32.069Z,19.85
2017-03-18T11:51:42.368Z,19.93
2017-03-18T11:52:52.673Z,19.84
2017-03-18T11:54:03.247Z,19.92
2017-03-18T11:55:13.571Z,19.85
2017-03-18T11:56:23.890Z,19.87
2017-03-18T11:57:34.217Z,19.84
2017-03-18T11:58:44.537Z,19.87
2017-03-18T11:59:55.096Z,19.94
2017-03-18T12:01:05.098Z,19.84
2017-03-18T12:02:15.418Z,19.87
2017-03-18T12:03:25.450Z,19.94
2017-03-18T12:04:35.772Z,19.94
2017-03-18T12:05:46.352Z,19.87
2017-03-18T12:06:56.674Z,19.89
2017-03-18T12:08:06.992Z,19.94
2017-03-18T12:09:17.315Z,19.96
2017-03-18T12:10:27.794Z,19.94
2017-03-18T12:11:38.355Z,19.93
2017-03-18T12:12:48.664Z,19.9
2017-03-18T12:13:59.001Z,19.97
2017-03-18T12:15:09.302Z,19.92
2017-03-18T12:16:19.607Z,19.94
2017-03-18T12:17:30.222Z,19.85
2017-03-18T12:18:40.540Z,19.85
2017-03-18T12:19:50.862Z,19.82
2017-03-18T12:21:01.171Z,19.77
2017-03-18T12:22:11.495Z,19.85
2017-03-18T12:23:22.102Z,19.82
2017-03-18T12:24:32.126Z,19.87
2017-03-18T12:25:42.458Z,19.9
2017-03-18T12:26:52.792Z,19.97
2017-03-18T12:28:03.109Z,19.82
2017-03-18T12:29:13.699Z,19.89
2017-03-18T12:30:24.013Z,19.87
2017-03-18T12:31:34.344Z,19.85
2017-03-18T12:32:44.654Z,19.85
2017-03-18T12:33:54.989Z,19.72
2017-03-18T12:35:05.581Z,19.84
2017-03-18T12:36:15.913Z,19.84
2017-03-18T12:37:26.238Z,19.85
2017-03-18T12:38:36.553Z,19.89
2017-03-18T12:39:46.547Z,19.78
2017-03-18T12:40:57.107Z,19.87
2017-03-18T12:42:07.422Z,19.9
2017-03-18T12:43:17.741Z,19.85
2017-03-18T12:44:28.075Z,19.93
2017-03-18T12:45:38.412Z,19.82
2017-03-18T12:46:49.024Z,19.89
2017-03-18T12:47:59.355Z,19.84
2017-03-18T12:49:09.666Z,19.82
2017-03-18T12:50:20.007Z,19.85
2017-03-18T12:51:29.994Z,19.82
2017-03-18T12:52:40.240Z,19.87
2017-03-18T12:53:50.579Z,19.81
2017-03-18T12:55:00.896Z,19.84
2017-03-18T12:56:11.209Z,19.92
2017-03-18T12:57:21.514Z,19.89
2017-03-18T12:58:32.445Z,19.79
2017-03-18T12:59:42.749Z,19.84
2017-03-18T13:00:53.062Z,19.77
2017-03-18T13:02:03.372Z,19.87
2017-03-18T13:03:13.683Z,19.81
2017-03-18T13:04:24.321Z,19.89
2017-03-18T13:05:34.298Z,19.78
2017-03-18T13:06:44.301Z,19.84
2017-03-18T13:07:54.334Z,19.87
2017-03-18T13:09:04.662Z,19.81
2017-03-18T13:10:15.298Z,19.81
2017-03-18T13:11:25.296Z,19.82
2017-03-18T13:12:35.622Z,19.9
2017-03-18T13:13:45.939Z,19.85
2017-03-18T13:14:56.287Z,19.74
2017-03-18T13:16:06.838Z,19.82
2017-03-18T13:17:16.841Z,19.77
2017-03-18T13:18:26.835Z,19.87
2017-03-18T13:19:37.151Z,19.82
2017-03-18T13:20:47.486Z,19.75
2017-03-18T13:21:58.045Z,19.78
2017-03-18T13:23:08.038Z,19.78
2017-03-18T13:24:18.351Z,19.72
2017-03-18T13:25:28.674Z,19.75
2017-03-18T13:26:38.988Z,19.82
2017-03-18T13:27:49.300Z,19.81
2017-03-18T13:28:59.622Z,19.87
2017-03-18T13:30:09.666Z,19.82
2017-03-18T13:31:19.986Z,19.74
2017-03-18T13:32:30.344Z,19.74
2017-03-18T13:33:40.611Z,19.72
2017-03-18T13:34:50.932Z,19.77
2017-03-18T13:36:01.235Z,19.7
2017-03-18T13:37:11.560Z,19.78
2017-03-18T13:38:21.545Z,19.82
2017-03-18T13:39:32.107Z,19.75
2017-03-18T13:40:42.111Z,19.74
2017-03-18T13:41:52.414Z,19.78
2017-03-18T13:43:02.739Z,19.74
2017-03-18T13:44:12.121Z,19.81
2017-03-18T13:45:22.697Z,19.71
2017-03-18T13:46:33.017Z,19.81
2017-03-18T13:47:43.334Z,19.77
2017-03-18T13:48:53.675Z,19.84
2017-03-18T13:50:03.993Z,19.79
2017-03-18T13:51:14.558Z,19.85
2017-03-18T13:52:24.572Z,19.84
2017-03-18T13:53:34.893Z,19.85
2017-03-18T13:54:45.210Z,19.81
2017-03-18T13:55:55.525Z,19.82
2017-03-18T13:57:06.120Z,19.81
2017-03-18T13:58:16.454Z,19.87
2017-03-18T13:59:26.821Z,19.82
2017-03-18T14:00:37.157Z,19.78
2017-03-18T14:01:47.464Z,19.82
2017-03-18T14:02:58.044Z,19.85
2017-03-18T14:04:08.381Z,19.85
2017-03-18T14:05:18.700Z,19.84
2017-03-18T14:06:29.022Z,19.74
2017-03-18T14:07:39.322Z,19.81
2017-03-18T14:08:49.985Z,19.81
2017-03-18T14:10:00.313Z,19.66
2017-03-18T14:11:10.626Z,19.7
2017-03-18T14:12:20.935Z,19.72
2017-03-18T14:13:31.251Z,19.7
2017-03-18T14:14:41.902Z,19.7
2017-03-18T14:15:52.222Z,19.7
2017-03-18T14:17:02.536Z,19.7
2017-03-18T14:18:12.876Z,19.67
2017-03-18T14:19:23.195Z,19.7
2017-03-18T14:20:33.445Z,19.7
2017-03-18T14:21:43.769Z,19.71
2017-03-18T14:22:53.772Z,19.74
2017-03-18T14:24:04.120Z,19.72
2017-03-18T14:25:14.418Z,19.72
2017-03-18T14:26:25.042Z,19.77
2017-03-18T14:27:35.363Z,19.7
2017-03-18T14:28:45.675Z,19.75
2017-03-18T14:29:56.000Z,19.77
2017-03-18T14:31:06.305Z,19.66
2017-03-18T14:32:16.566Z,19.71
2017-03-18T14:33:26.868Z,19.75
2017-03-18T14:34:37.188Z,19.71
2017-03-18T14:35:47.483Z,19.66
2017-03-18T14:36:57.800Z,19.71
2017-03-18T14:38:08.057Z,19.71
2017-03-18T14:39:18.381Z,19.62
2017-03-18T14:40:28.709Z,19.67
2017-03-18T14:41:39.039Z,19.72
2017-03-18T14:42:49.039Z,19.71
2017-03-18T14:43:59.610Z,19.77
2017-03-18T14:45:09.935Z,19.66
2017-03-18T14:46:20.271Z,19.72
2017-03-18T14:47:30.262Z,19.78
2017-03-18T14:48:40.592Z,19.7
2017-03-18T14:49:51.191Z,19.72
2017-03-18T14:51:01.651Z,19.77
2017-03-18T14:52:11.967Z,19.79
2017-03-18T14:53:22.281Z,19.79
2017-03-18T14:54:32.598Z,19.72
2017-03-18T14:55:43.194Z,19.7
2017-03-18T14:56:53.494Z,19.78
2017-03-18T14:58:03.485Z,19.71
2017-03-18T14:59:13.167Z,19.66
2017-03-18T15:00:23.176Z,19.7
2017-03-18T15:01:33.904Z,19.67
2017-03-18T15:02:44.233Z,19.67
2017-03-18T15:03:54.571Z,19.72
2017-03-18T15:05:04.913Z,19.67
2017-03-18T15:06:15.260Z,19.74
2017-03-18T15:07:25.900Z,19.74
2017-03-18T15:08:36.220Z,19.72